createdAt,value
2023-01-19T00:00:51.459Z,565.0000
2023-01-19T00:01:53.868Z,564.0000
2023-01-19T00:02:54.133Z,564.0000
2023-01-19T00:03:56.511Z,559.0000
2023-01-19T00:04:58.866Z,562.0000
2023-01-19T00:05:59.129Z,560.0000
2023-01-19T00:07:01.506Z,560.0000
2023-01-19T00:08:03.816Z,563.0000
2023-01-19T00:09:04.022Z,559.0000
2023-01-19T00:10:06.383Z,554.0000
2023-01-19T00:11:08.728Z,558.0000
2023-01-19T00:12:09.018Z,559.0000
2023-01-19T00:13:11.275Z,558.0000
2023-01-19T00:14:13.587Z,545.0000
2023-01-19T00:16:37.725Z,552.0000
2023-01-19T00:17:40.003Z,546.0000
2023-01-19T00:18:42.281Z,547.0000
2023-01-19T00:19:42.453Z,550.0000
2023-01-19T00:20:44.803Z,551.0000
2023-01-19T00:21:47.144Z,553.0000
2023-01-19T00:22:49.620Z,546.0000
2023-01-19T00:23:51.851Z,544.0000
2023-01-19T00:24:52.084Z,547.0000
2023-01-19T00:25:54.421Z,546.0000
2023-01-19T00:26:56.721Z,546.0000
2023-01-19T00:28:01.437Z,540.0000
2023-01-19T00:29:01.410Z,539.0000
2023-01-19T00:30:03.690Z,541.0000
2023-01-19T00:31:03.946Z,539.0000
2023-01-19T00:32:06.151Z,539.0000
2023-01-19T00:33:08.536Z,545.0000
2023-01-19T00:34:10.839Z,545.0000
2023-01-19T00:35:13.185Z,547.0000
2023-01-19T00:36:13.386Z,543.0000
2023-01-19T00:37:15.714Z,538.0000
2023-01-19T00:38:18.119Z,538.0000
2023-01-19T00:39:20.412Z,537.0000
2023-01-19T00:40:22.756Z,540.0000
2023-01-19T00:41:22.955Z,539.0000
2023-01-19T00:42:25.307Z,538.0000
2023-01-19T00:43:27.683Z,536.0000
2023-01-19T00:44:29.968Z,542.0000
2023-01-19T00:45:32.397Z,539.0000
2023-01-19T00:46:32.574Z,544.0000
2023-01-19T00:47:34.960Z,546.0000
2023-01-19T00:48:37.361Z,546.0000
2023-01-19T00:49:39.665Z,548.0000
2023-01-19T00:50:42.044Z,548.0000
2023-01-19T00:51:42.302Z,549.0000
2023-01-19T00:52:44.676Z,548.0000
2023-01-19T00:53:47.097Z,539.0000
2023-01-19T00:54:47.276Z,543.0000
2023-01-19T00:55:49.701Z,540.0000
2023-01-19T00:56:52.062Z,542.0000
2023-01-19T00:57:54.463Z,542.0000
2023-01-19T00:58:54.834Z,549.0000
2023-01-19T00:59:57.103Z,546.0000
2023-01-19T01:00:59.544Z,546.0000
2023-01-19T01:02:02.127Z,553.0000
2023-01-19T01:03:04.955Z,552.0000
2023-01-19T01:04:04.646Z,552.0000
2023-01-19T01:05:06.906Z,554.0000
2023-01-19T01:06:09.282Z,552.0000
2023-01-19T01:07:11.694Z,550.0000
2023-01-19T01:08:11.894Z,547.0000
2023-01-19T01:09:14.310Z,547.0000
2023-01-19T01:10:16.632Z,545.0000
2023-01-19T01:11:19.025Z,546.0000
2023-01-19T01:12:19.153Z,542.0000
2023-01-19T01:13:23.558Z,538.0000
2023-01-19T01:14:23.924Z,544.0000
2023-01-19T01:15:26.217Z,540.0000
2023-01-19T01:16:28.558Z,540.0000
2023-01-19T01:17:28.699Z,535.0000
2023-01-19T01:18:31.056Z,528.0000
2023-01-19T01:19:33.587Z,527.0000
2023-01-19T01:20:35.859Z,532.0000
2023-01-19T01:21:36.126Z,532.0000
2023-01-19T01:22:38.525Z,535.0000
2023-01-19T01:23:40.948Z,535.0000
2023-01-19T01:24:43.361Z,536.0000
2023-01-19T01:25:43.614Z,534.0000
2023-01-19T01:26:46.017Z,533.0000
2023-01-19T01:27:48.363Z,537.0000
2023-01-19T01:28:50.723Z,537.0000
2023-01-19T01:29:53.102Z,531.0000
2023-01-19T01:30:53.254Z,530.0000
2023-01-19T01:31:55.631Z,529.0000
2023-01-19T01:32:58.187Z,528.0000
2023-01-19T01:34:00.241Z,531.0000
2023-01-19T01:35:00.493Z,533.0000
2023-01-19T01:36:02.829Z,536.0000
2023-01-19T01:37:05.160Z,528.0000
2023-01-19T01:38:07.492Z,526.0000
2023-01-19T01:39:09.794Z,527.0000
2023-01-19T01:40:10.057Z,524.0000
2023-01-19T01:41:12.375Z,528.0000
2023-01-19T01:42:14.763Z,536.0000
2023-01-19T01:43:17.085Z,533.0000
2023-01-19T01:44:19.445Z,531.0000
2023-01-19T01:45:58.562Z,519.0000
2023-01-19T01:47:00.659Z,523.0000
2023-01-19T01:48:02.960Z,522.0000
2023-01-19T01:49:05.256Z,524.0000
2023-01-19T01:50:07.576Z,523.0000
2023-01-19T01:51:07.877Z,524.0000
2023-01-19T01:52:10.040Z,526.0000
2023-01-19T01:53:12.579Z,524.0000
2023-01-19T01:54:14.766Z,524.0000
2023-01-19T01:55:17.086Z,527.0000
2023-01-19T01:56:19.443Z,525.0000
2023-01-19T01:57:19.652Z,526.0000
2023-01-19T01:58:22.018Z,524.0000
2023-01-19T01:59:24.405Z,530.0000
2023-01-19T02:00:26.779Z,531.0000
2023-01-19T02:01:29.204Z,529.0000
2023-01-19T02:02:29.351Z,523.0000
2023-01-19T02:03:31.784Z,520.0000
2023-01-19T02:04:34.086Z,526.0000
2023-01-19T02:05:36.385Z,538.0000
2023-01-19T02:06:36.548Z,524.0000
2023-01-19T02:07:38.761Z,528.0000
2023-01-19T02:08:41.053Z,526.0000
2023-01-19T02:09:43.314Z,529.0000
2023-01-19T02:10:45.632Z,527.0000
2023-01-19T02:11:47.934Z,528.0000
2023-01-19T02:12:50.192Z,534.0000
2023-01-19T02:13:52.405Z,526.0000
2023-01-19T02:14:52.503Z,525.0000
2023-01-19T02:15:54.763Z,531.0000
2023-01-19T02:16:57.088Z,531.0000
2023-01-19T02:17:59.330Z,522.0000
2023-01-19T02:19:01.682Z,521.0000
2023-01-19T02:20:04.021Z,522.0000
2023-01-19T02:21:04.227Z,523.0000
2023-01-19T02:22:06.544Z,522.0000
2023-01-19T02:23:08.846Z,522.0000
2023-01-19T02:24:11.162Z,523.0000
2023-01-19T02:25:13.484Z,522.0000
2023-01-19T02:26:15.804Z,521.0000
2023-01-19T02:27:16.026Z,520.0000
2023-01-19T02:28:18.319Z,520.0000
2023-01-19T02:29:20.586Z,520.0000
2023-01-19T02:30:22.984Z,518.0000
2023-01-19T02:31:25.221Z,517.0000
2023-01-19T02:32:27.604Z,515.0000
2023-01-19T02:33:27.756Z,519.0000
2023-01-19T02:34:30.070Z,518.0000
2023-01-19T02:35:32.442Z,513.0000
2023-01-19T02:36:34.774Z,517.0000
2023-01-19T02:37:37.188Z,524.0000
2023-01-19T02:38:37.353Z,520.0000
2023-01-19T02:39:39.731Z,522.0000
2023-01-19T02:40:42.043Z,520.0000
2023-01-19T02:41:44.397Z,515.0000
2023-01-19T02:42:46.772Z,519.0000
2023-01-19T02:43:46.977Z,520.0000
2023-01-19T02:44:49.303Z,517.0000
2023-01-19T02:45:51.696Z,509.0000
2023-01-19T02:46:54.006Z,518.0000
2023-01-19T02:47:56.419Z,513.0000
2023-01-19T02:48:56.607Z,509.0000
2023-01-19T02:49:58.973Z,515.0000
2023-01-19T02:51:01.290Z,515.0000
2023-01-19T02:52:03.597Z,511.0000
2023-01-19T02:53:03.807Z,517.0000
2023-01-19T02:54:06.108Z,522.0000
2023-01-19T02:55:08.438Z,517.0000
2023-01-19T02:56:10.787Z,518.0000
2023-01-19T02:57:13.081Z,518.0000
2023-01-19T02:58:13.315Z,513.0000
2023-01-19T02:59:15.638Z,513.0000
2023-01-19T03:00:17.876Z,508.0000
2023-01-19T03:01:20.209Z,510.0000
2023-01-19T03:02:22.609Z,514.0000
2023-01-19T03:03:24.798Z,516.0000
2023-01-19T03:04:24.987Z,514.0000
2023-01-19T03:05:27.307Z,511.0000
2023-01-19T03:06:29.652Z,509.0000
2023-01-19T03:07:31.959Z,507.0000
2023-01-19T03:08:34.332Z,513.0000
2023-01-19T03:09:36.621Z,507.0000
2023-01-19T03:10:36.812Z,512.0000
2023-01-19T03:11:39.155Z,518.0000
2023-01-19T03:12:41.480Z,514.0000
2023-01-19T03:13:43.848Z,520.0000
2023-01-19T03:14:46.114Z,522.0000
2023-01-19T03:15:48.479Z,522.0000
2023-01-19T03:16:48.867Z,524.0000
2023-01-19T03:17:50.947Z,525.0000
2023-01-19T03:18:53.332Z,527.0000
2023-01-19T03:19:55.593Z,524.0000
2023-01-19T03:20:57.847Z,528.0000
2023-01-19T03:21:58.030Z,523.0000
2023-01-19T03:22:58.740Z,523.0000
2023-01-19T03:24:00.585Z,517.0000
2023-01-19T03:25:02.930Z,520.0000
2023-01-19T03:26:05.265Z,520.0000
2023-01-19T03:27:07.592Z,518.0000
2023-01-19T03:28:07.799Z,514.0000
2023-01-19T03:29:10.286Z,511.0000
2023-01-19T03:30:12.574Z,517.0000
2023-01-19T03:31:14.975Z,521.0000
2023-01-19T03:32:15.158Z,522.0000
2023-01-19T03:33:17.523Z,522.0000
2023-01-19T03:34:19.847Z,530.0000
2023-01-19T03:35:22.183Z,528.0000
2023-01-19T03:36:22.408Z,526.0000
2023-01-19T03:37:24.828Z,524.0000
2023-01-19T03:38:27.223Z,521.0000
2023-01-19T03:39:29.683Z,520.0000
2023-01-19T03:41:38.811Z,523.0000
2023-01-19T03:42:41.066Z,521.0000
2023-01-19T03:43:43.361Z,523.0000
2023-01-19T03:44:43.562Z,515.0000
2023-01-19T03:45:45.894Z,522.0000
2023-01-19T03:46:48.208Z,521.0000
2023-01-19T03:47:50.570Z,518.0000
2023-01-19T03:49:46.824Z,514.0000
2023-01-19T03:50:49.048Z,517.0000
2023-01-19T03:51:49.233Z,518.0000
2023-01-19T03:52:51.539Z,522.0000
2023-01-19T03:53:53.880Z,520.0000
2023-01-19T03:54:56.203Z,520.0000
2023-01-19T03:55:58.527Z,522.0000
2023-01-19T03:57:00.897Z,524.0000
2023-01-19T03:58:01.122Z,524.0000
2023-01-19T03:59:03.471Z,524.0000
2023-01-19T04:00:05.856Z,520.0000
2023-01-19T04:01:08.315Z,526.0000
2023-01-19T04:02:10.612Z,526.0000
2023-01-19T04:03:10.794Z,523.0000
2023-01-19T04:04:13.028Z,524.0000
2023-01-19T04:05:15.385Z,523.0000
2023-01-19T04:06:17.709Z,524.0000
2023-01-19T04:07:20.057Z,528.0000
2023-01-19T04:08:20.260Z,527.0000
2023-01-19T04:09:22.551Z,524.0000
2023-01-19T04:10:24.859Z,523.0000
2023-01-19T04:11:27.077Z,528.0000
2023-01-19T04:12:29.343Z,528.0000
2023-01-19T04:13:31.581Z,524.0000
2023-01-19T04:14:33.845Z,521.0000
2023-01-19T04:15:36.204Z,522.0000
2023-01-19T04:16:36.317Z,527.0000
2023-01-19T04:17:38.507Z,521.0000
2023-01-19T04:18:40.796Z,520.0000
2023-01-19T04:19:43.078Z,527.0000
2023-01-19T04:20:44.253Z,524.0000
2023-01-19T04:21:46.505Z,524.0000
2023-01-19T04:22:48.781Z,529.0000
2023-01-19T04:23:51.068Z,524.0000
2023-01-19T04:24:53.362Z,524.0000
2023-01-19T04:25:53.500Z,524.0000
2023-01-19T04:26:55.763Z,534.0000
2023-01-19T04:27:57.984Z,526.0000
2023-01-19T04:29:00.295Z,528.0000
2023-01-19T04:30:00.443Z,526.0000
2023-01-19T04:31:02.837Z,529.0000
2023-01-19T04:32:05.056Z,523.0000
2023-01-19T04:33:07.336Z,522.0000
2023-01-19T04:34:07.457Z,525.0000
2023-01-19T04:35:09.848Z,519.0000
2023-01-19T04:36:12.301Z,525.0000
2023-01-19T04:37:12.405Z,537.0000
2023-01-19T04:38:14.758Z,532.0000
2023-01-19T04:39:17.122Z,536.0000
2023-01-19T04:40:17.334Z,542.0000
2023-01-19T04:41:19.777Z,541.0000
2023-01-19T04:42:22.091Z,548.0000
2023-01-19T04:43:22.319Z,553.0000
2023-01-19T04:44:24.557Z,556.0000
2023-01-19T04:45:26.869Z,566.0000
2023-01-19T04:46:29.198Z,564.0000
2023-01-19T04:47:29.462Z,563.0000
2023-01-19T04:48:31.588Z,566.0000
2023-01-19T04:49:33.943Z,571.0000
2023-01-19T04:50:36.233Z,571.0000
2023-01-19T04:51:38.609Z,570.0000
2023-01-19T04:52:40.892Z,573.0000
2023-01-19T04:53:41.164Z,571.0000
2023-01-19T04:54:43.528Z,570.0000
2023-01-19T04:55:45.936Z,573.0000
2023-01-19T04:56:46.168Z,573.0000
2023-01-19T04:57:48.547Z,573.0000
2023-01-19T04:58:50.964Z,579.0000
2023-01-19T04:59:51.178Z,580.0000
2023-01-19T05:00:53.657Z,578.0000
2023-01-19T05:01:56.157Z,577.0000
2023-01-19T05:02:56.266Z,577.0000
2023-01-19T05:03:58.555Z,580.0000
2023-01-19T05:05:00.939Z,585.0000
2023-01-19T05:06:03.271Z,584.0000
2023-01-19T05:07:05.715Z,585.0000
2023-01-19T05:08:07.879Z,591.0000
2023-01-19T05:09:07.999Z,586.0000
2023-01-19T05:10:10.300Z,587.0000
2023-01-19T05:11:12.617Z,596.0000
2023-01-19T05:12:14.949Z,598.0000
2023-01-19T05:13:17.271Z,595.0000
2023-01-19T05:14:19.610Z,610.0000
2023-01-19T05:15:19.790Z,617.0000
2023-01-19T05:16:22.160Z,607.0000
2023-01-19T05:17:24.446Z,614.0000
2023-01-19T05:18:26.770Z,618.0000
2023-01-19T05:19:26.923Z,621.0000
2023-01-19T05:20:29.276Z,628.0000
2023-01-19T05:21:31.589Z,635.0000
2023-01-19T05:22:31.824Z,639.0000
2023-01-19T05:23:34.215Z,634.0000
2023-01-19T05:24:36.516Z,638.0000
2023-01-19T05:25:36.712Z,639.0000
2023-01-19T05:26:39.065Z,649.0000
2023-01-19T05:27:41.448Z,647.0000
2023-01-19T05:28:43.755Z,657.0000
2023-01-19T05:29:46.055Z,661.0000
2023-01-19T05:30:48.427Z,656.0000
2023-01-19T05:31:48.686Z,670.0000
2023-01-19T05:32:50.951Z,668.0000
2023-01-19T05:33:53.271Z,676.0000
2023-01-19T05:34:55.580Z,682.0000
2023-01-19T05:35:57.916Z,688.0000
2023-01-19T05:37:00.266Z,689.0000
2023-01-19T05:38:02.650Z,697.0000
2023-01-19T05:39:04.973Z,702.0000
2023-01-19T05:40:07.340Z,698.0000
2023-01-19T05:41:07.562Z,706.0000
2023-01-19T05:42:09.942Z,705.0000
2023-01-19T05:43:12.347Z,708.0000
2023-01-19T05:44:12.591Z,691.0000
2023-01-19T05:45:14.967Z,709.0000
2023-01-19T05:46:17.448Z,715.0000
2023-01-19T05:48:33.993Z,688.0000
2023-01-19T05:50:35.417Z,704.0000
2023-01-19T05:51:37.755Z,705.0000
2023-01-19T05:52:40.083Z,707.0000
2023-01-19T05:53:42.467Z,709.0000
2023-01-19T05:54:42.657Z,715.0000
2023-01-19T05:55:45.032Z,716.0000
2023-01-19T05:56:47.393Z,713.0000
2023-01-19T05:57:49.713Z,716.0000
2023-01-19T05:58:52.125Z,718.0000
2023-01-19T05:59:52.294Z,717.0000
2023-01-19T06:00:54.671Z,722.0000
2023-01-19T06:01:56.972Z,727.0000
2023-01-19T06:02:59.772Z,729.0000
2023-01-19T06:04:01.688Z,726.0000
2023-01-19T06:05:01.833Z,726.0000
2023-01-19T06:06:04.195Z,728.0000
2023-01-19T06:07:06.535Z,727.0000
2023-01-19T06:08:08.856Z,724.0000
2023-01-19T06:09:11.240Z,728.0000
2023-01-19T06:10:11.398Z,729.0000
2023-01-19T06:11:13.734Z,729.0000
2023-01-19T06:12:16.073Z,728.0000
2023-01-19T06:13:18.353Z,738.0000
2023-01-19T06:14:20.673Z,742.0000
2023-01-19T06:15:23.029Z,743.0000
2023-01-19T06:16:23.179Z,746.0000
2023-01-19T06:17:25.488Z,746.0000
2023-01-19T06:18:27.844Z,733.0000
2023-01-19T06:19:30.189Z,746.0000
2023-01-19T06:20:32.493Z,753.0000
2023-01-19T06:21:34.855Z,755.0000
2023-01-19T06:22:35.007Z,675.0000
2023-01-19T06:23:37.375Z,593.0000
2023-01-19T06:24:39.828Z,536.0000
2023-01-19T06:25:40.105Z,532.0000
2023-01-19T06:26:40.425Z,521.0000
2023-01-19T06:27:42.930Z,511.0000
2023-01-19T06:28:45.435Z,503.0000
2023-01-19T06:29:47.933Z,501.0000
2023-01-19T06:30:50.390Z,513.0000
2023-01-19T06:32:46.822Z,573.0000
2023-01-19T06:33:49.186Z,586.0000
2023-01-19T06:34:49.492Z,595.0000
2023-01-19T06:35:50.701Z,599.0000
2023-01-19T06:36:52.126Z,601.0000
2023-01-19T06:37:52.336Z,602.0000
2023-01-19T06:38:54.722Z,608.0000
2023-01-19T06:39:57.087Z,611.0000
2023-01-19T06:40:59.455Z,614.0000
2023-01-19T06:42:01.758Z,617.0000
2023-01-19T06:43:02.357Z,622.0000
2023-01-19T06:44:04.309Z,625.0000
2023-01-19T06:45:06.707Z,627.0000
2023-01-19T06:46:09.130Z,630.0000
2023-01-19T06:47:15.567Z,632.0000
2023-01-19T06:48:11.631Z,624.0000
2023-01-19T06:49:14.009Z,628.0000
2023-01-19T06:50:16.382Z,630.0000
2023-01-19T06:51:18.687Z,620.0000
2023-01-19T06:52:18.934Z,615.0000
2023-01-19T06:53:21.324Z,621.0000
2023-01-19T06:54:23.692Z,625.0000
2023-01-19T06:55:27.890Z,626.0000
2023-01-19T06:56:28.496Z,630.0000
2023-01-19T06:57:28.791Z,629.0000
2023-01-19T06:58:31.136Z,628.0000
2023-01-19T06:59:33.476Z,629.0000
2023-01-19T07:00:35.816Z,624.0000
2023-01-19T07:01:36.099Z,634.0000
2023-01-19T07:02:38.524Z,632.0000
2023-01-19T07:03:40.759Z,631.0000
2023-01-19T07:04:43.103Z,634.0000
2023-01-19T07:05:45.445Z,633.0000
2023-01-19T07:06:45.576Z,633.0000
2023-01-19T07:07:47.969Z,635.0000
2023-01-19T07:08:50.299Z,637.0000
2023-01-19T07:09:54.115Z,637.0000
2023-01-19T07:11:26.650Z,636.0000
2023-01-19T07:11:55.262Z,632.0000
2023-01-19T07:12:57.612Z,635.0000
2023-01-19T07:13:59.996Z,634.0000
2023-01-19T07:15:00.188Z,634.0000
2023-01-19T07:16:02.556Z,635.0000
2023-01-19T07:17:04.843Z,622.0000
2023-01-19T07:18:07.169Z,636.0000
2023-01-19T07:19:07.372Z,639.0000
2023-01-19T07:20:09.735Z,638.0000
2023-01-19T07:21:12.144Z,638.0000
2023-01-19T07:22:14.485Z,638.0000
2023-01-19T07:23:14.731Z,636.0000
2023-01-19T07:24:17.091Z,639.0000
2023-01-19T07:25:19.443Z,642.0000
2023-01-19T07:26:22.152Z,632.0000
2023-01-19T07:27:24.144Z,633.0000
2023-01-19T07:28:24.357Z,638.0000
2023-01-19T07:29:26.696Z,633.0000
2023-01-19T07:30:29.178Z,634.0000
2023-01-19T07:31:31.593Z,640.0000
2023-01-19T07:32:33.709Z,652.0000
2023-01-19T07:33:33.892Z,654.0000
2023-01-19T07:34:36.250Z,656.0000
2023-01-19T07:35:38.622Z,678.0000
2023-01-19T07:36:40.969Z,670.0000
2023-01-19T07:37:43.275Z,665.0000
2023-01-19T07:38:43.600Z,666.0000
2023-01-19T07:39:45.784Z,665.0000
2023-01-19T07:40:48.101Z,667.0000
2023-01-19T07:41:50.384Z,673.0000
2023-01-19T07:42:52.607Z,679.0000
2023-01-19T07:43:54.828Z,669.0000
2023-01-19T07:44:57.057Z,665.0000
2023-01-19T07:45:59.323Z,665.0000
2023-01-19T07:47:01.609Z,665.0000
2023-01-19T07:48:01.685Z,663.0000
2023-01-19T07:49:03.975Z,663.0000
2023-01-19T07:50:06.227Z,671.0000
2023-01-19T07:51:10.424Z,672.0000
2023-01-19T07:52:10.748Z,675.0000
2023-01-19T07:53:13.012Z,676.0000
2023-01-19T07:54:13.229Z,676.0000
2023-01-19T07:55:15.555Z,671.0000
2023-01-19T07:56:17.925Z,668.0000
2023-01-19T07:57:20.334Z,671.0000
2023-01-19T07:58:20.534Z,676.0000
2023-01-19T07:59:22.901Z,679.0000
2023-01-19T08:00:25.282Z,674.0000
2023-01-19T08:01:27.801Z,678.0000
2023-01-19T08:02:30.029Z,677.0000
2023-01-19T08:03:30.211Z,679.0000
2023-01-19T08:04:32.691Z,669.0000
2023-01-19T08:05:34.983Z,665.0000
2023-01-19T08:06:37.353Z,672.0000
2023-01-19T08:07:39.786Z,666.0000
2023-01-19T08:08:39.972Z,666.0000
2023-01-19T08:09:42.354Z,665.0000
2023-01-19T08:10:44.687Z,666.0000
2023-01-19T08:11:47.083Z,665.0000
2023-01-19T08:12:47.322Z,658.0000
2023-01-19T08:13:49.705Z,657.0000
2023-01-19T08:14:52.041Z,655.0000
2023-01-19T08:15:54.505Z,655.0000
2023-01-19T08:16:56.687Z,652.0000
2023-01-19T08:17:56.891Z,651.0000
2023-01-19T08:18:59.200Z,651.0000
2023-01-19T08:20:01.569Z,652.0000
2023-01-19T08:21:03.833Z,652.0000
2023-01-19T08:22:06.116Z,654.0000
2023-01-19T08:23:08.442Z,655.0000
2023-01-19T08:24:08.594Z,654.0000
2023-01-19T08:25:10.852Z,656.0000
2023-01-19T08:26:13.147Z,655.0000
2023-01-19T08:27:15.480Z,588.0000
2023-01-19T08:28:17.988Z,557.0000
2023-01-19T08:29:20.231Z,542.0000
2023-01-19T08:30:22.614Z,531.0000
2023-01-19T08:31:25.245Z,532.0000
2023-01-19T08:32:27.473Z,575.0000
2023-01-19T08:33:27.631Z,586.0000
2023-01-19T08:34:29.991Z,595.0000
2023-01-19T08:35:32.401Z,603.0000
2023-01-19T08:36:34.743Z,608.0000
2023-01-19T08:37:37.078Z,608.0000
2023-01-19T08:38:37.362Z,608.0000
2023-01-19T08:39:39.710Z,611.0000
2023-01-19T08:40:42.153Z,612.0000
2023-01-19T08:41:44.426Z,609.0000
2023-01-19T08:42:44.658Z,608.0000
2023-01-19T08:43:47.106Z,607.0000
2023-01-19T08:44:57.686Z,606.0000
2023-01-19T08:45:51.928Z,604.0000
2023-01-19T08:46:52.155Z,603.0000
2023-01-19T08:47:54.501Z,605.0000
2023-01-19T08:48:56.876Z,603.0000
2023-01-19T08:49:59.233Z,601.0000
2023-01-19T08:51:01.607Z,598.0000
2023-01-19T08:52:01.883Z,598.0000
2023-01-19T08:53:04.278Z,598.0000
2023-01-19T08:54:06.751Z,599.0000
2023-01-19T08:55:09.113Z,596.0000
2023-01-19T08:56:09.411Z,596.0000
2023-01-19T08:57:11.785Z,598.0000
2023-01-19T08:58:14.192Z,600.0000
2023-01-19T08:59:14.587Z,601.0000
2023-01-19T09:00:16.870Z,599.0000
2023-01-19T09:01:19.392Z,599.0000
2023-01-19T09:02:21.858Z,598.0000
2023-01-19T09:03:21.988Z,597.0000
2023-01-19T09:04:24.301Z,596.0000
2023-01-19T09:05:26.560Z,597.0000
2023-01-19T09:06:28.867Z,598.0000
2023-01-19T09:07:32.586Z,598.0000
2023-01-19T09:08:31.293Z,601.0000
2023-01-19T09:09:33.621Z,601.0000
2023-01-19T09:10:36.068Z,598.0000
2023-01-19T09:11:38.289Z,597.0000
2023-01-19T09:12:40.565Z,595.0000
2023-01-19T09:13:42.912Z,593.0000
2023-01-19T09:14:43.193Z,592.0000
2023-01-19T09:15:45.602Z,591.0000
2023-01-19T09:16:47.988Z,591.0000
2023-01-19T09:17:50.383Z,592.0000
2023-01-19T09:18:50.646Z,590.0000
2023-01-19T09:19:53.071Z,591.0000
2023-01-19T09:20:55.410Z,591.0000
2023-01-19T09:21:57.770Z,591.0000
2023-01-19T09:22:58.024Z,591.0000
2023-01-19T09:24:00.428Z,592.0000
2023-01-19T09:25:02.889Z,591.0000
2023-01-19T09:26:05.252Z,592.0000
2023-01-19T09:27:05.522Z,588.0000
2023-01-19T09:28:07.815Z,584.0000
2023-01-19T09:29:10.198Z,586.0000
2023-01-19T09:30:12.675Z,590.0000
2023-01-19T09:31:15.091Z,593.0000
2023-01-19T09:32:15.091Z,594.0000
2023-01-19T09:32:59.410Z,604.0000
2023-01-19T09:33:58.360Z,603.0000
2023-01-19T09:35:00.654Z,599.0000
2023-01-19T09:36:02.955Z,598.0000
2023-01-19T09:37:05.278Z,595.0000
2023-01-19T09:38:07.665Z,591.0000
2023-01-19T09:39:07.839Z,593.0000
2023-01-19T09:40:10.186Z,593.0000
2023-01-19T09:41:12.567Z,592.0000
2023-01-19T09:42:14.893Z,592.0000
2023-01-19T09:43:17.244Z,591.0000
2023-01-19T09:44:17.425Z,589.0000
2023-01-19T09:45:19.817Z,588.0000
2023-01-19T09:46:22.206Z,585.0000
2023-01-19T09:47:24.513Z,584.0000
2023-01-19T09:48:26.857Z,583.0000
2023-01-19T09:49:27.077Z,584.0000
2023-01-19T09:50:29.416Z,586.0000
2023-01-19T09:51:31.831Z,588.0000
2023-01-19T09:52:34.166Z,592.0000
2023-01-19T09:53:34.401Z,590.0000
2023-01-19T09:54:36.776Z,592.0000
2023-01-19T09:55:39.130Z,588.0000
2023-01-19T09:56:41.530Z,584.0000
2023-01-19T09:57:43.937Z,582.0000
2023-01-19T09:58:44.043Z,582.0000
2023-01-19T09:59:46.346Z,582.0000
2023-01-19T10:00:48.818Z,579.0000
2023-01-19T10:01:51.066Z,571.0000
2023-01-19T10:02:53.373Z,574.0000
2023-01-19T10:03:55.592Z,574.0000
2023-01-19T10:04:55.736Z,573.0000
2023-01-19T10:05:58.046Z,577.0000
2023-01-19T10:07:00.402Z,574.0000
2023-01-19T10:08:03.068Z,574.0000
2023-01-19T10:09:04.971Z,568.0000
2023-01-19T10:10:05.115Z,566.0000
2023-01-19T10:11:07.352Z,568.0000
2023-01-19T10:12:09.664Z,565.0000
2023-01-19T10:13:11.978Z,567.0000
2023-01-19T10:14:14.246Z,564.0000
2023-01-19T10:15:16.518Z,561.0000
2023-01-19T10:16:18.848Z,562.0000
2023-01-19T10:17:21.153Z,559.0000
2023-01-19T10:18:21.278Z,559.0000
2023-01-19T10:19:23.579Z,559.0000
2023-01-19T10:20:25.903Z,562.0000
2023-01-19T10:21:28.237Z,559.0000
2023-01-19T10:22:30.607Z,560.0000
2023-01-19T10:23:30.729Z,559.0000
2023-01-19T10:24:33.011Z,560.0000
2023-01-19T10:25:35.376Z,558.0000
2023-01-19T10:26:37.617Z,555.0000
2023-01-19T10:27:39.988Z,544.0000
2023-01-19T10:28:42.294Z,535.0000
2023-01-19T10:29:44.590Z,539.0000
2023-01-19T10:30:44.829Z,542.0000
2023-01-19T10:31:47.120Z,551.0000
2023-01-19T10:32:49.495Z,551.0000
2023-01-19T10:33:51.649Z,552.0000
2023-01-19T10:34:51.897Z,550.0000
2023-01-19T10:35:54.215Z,547.0000
2023-01-19T10:36:54.332Z,548.0000
2023-01-19T10:37:56.668Z,548.0000
2023-01-19T10:38:58.946Z,550.0000
2023-01-19T10:40:01.287Z,548.0000
2023-01-19T10:41:03.593Z,546.0000
2023-01-19T10:42:05.792Z,550.0000
2023-01-19T10:43:06.044Z,552.0000
2023-01-19T10:44:08.349Z,545.0000
2023-01-19T10:45:10.582Z,544.0000
2023-01-19T10:46:13.012Z,543.0000
2023-01-19T10:47:15.234Z,547.0000
2023-01-19T10:48:15.600Z,540.0000
2023-01-19T10:49:17.724Z,544.0000
2023-01-19T10:50:20.024Z,539.0000
2023-01-19T10:51:22.347Z,544.0000
2023-01-19T10:52:24.578Z,548.0000
2023-01-19T10:53:27.051Z,546.0000
2023-01-19T10:54:29.194Z,547.0000
2023-01-19T10:55:29.354Z,547.0000
2023-01-19T10:56:31.672Z,550.0000
2023-01-19T10:57:34.010Z,550.0000
2023-01-19T10:58:36.353Z,549.0000
2023-01-19T10:59:38.691Z,550.0000
2023-01-19T11:00:29.830Z,536.0000
2023-01-19T11:01:30.605Z,547.0000
2023-01-19T11:02:32.972Z,551.0000
2023-01-19T11:03:35.028Z,548.0000
2023-01-19T11:04:37.396Z,546.0000
2023-01-19T11:05:39.550Z,546.0000
2023-01-19T11:06:39.682Z,546.0000
2023-01-19T11:07:41.982Z,558.0000
2023-01-19T11:08:44.224Z,560.0000
2023-01-19T11:09:46.532Z,553.0000
2023-01-19T11:10:49.325Z,541.0000
2023-01-19T11:11:50.967Z,531.0000
2023-01-19T11:12:53.201Z,531.0000
2023-01-19T11:13:55.440Z,534.0000
2023-01-19T11:14:57.809Z,535.0000
2023-01-19T11:15:57.915Z,536.0000
2023-01-19T11:17:00.229Z,536.0000
2023-01-19T11:18:02.495Z,538.0000
2023-01-19T11:19:04.802Z,542.0000
2023-01-19T11:20:07.244Z,542.0000
2023-01-19T11:21:09.446Z,539.0000
2023-01-19T11:22:09.640Z,544.0000
2023-01-19T11:23:11.958Z,546.0000
2023-01-19T11:24:14.245Z,546.0000
2023-01-19T11:25:16.583Z,545.0000
2023-01-19T11:26:16.756Z,544.0000
2023-01-19T11:27:19.095Z,542.0000
2023-01-19T11:28:19.270Z,540.0000
2023-01-19T11:29:21.548Z,540.0000
2023-01-19T11:30:23.903Z,537.0000
2023-01-19T11:31:26.227Z,537.0000
2023-01-19T11:32:28.505Z,535.0000
2023-01-19T11:33:30.886Z,540.0000
2023-01-19T11:34:31.122Z,540.0000
2023-01-19T11:35:33.606Z,542.0000
2023-01-19T11:36:35.848Z,541.0000
2023-01-19T11:37:38.144Z,543.0000
2023-01-19T11:38:38.362Z,543.0000
2023-01-19T11:39:40.746Z,548.0000
2023-01-19T11:40:43.158Z,546.0000
2023-01-19T11:41:45.532Z,544.0000
2023-01-19T11:42:45.771Z,542.0000
2023-01-19T11:43:49.503Z,540.0000
2023-01-19T11:44:50.546Z,540.0000
2023-01-19T11:45:53.082Z,539.0000
2023-01-19T11:46:53.144Z,540.0000
2023-01-19T11:47:55.509Z,543.0000
2023-01-19T11:48:57.869Z,544.0000
2023-01-19T11:50:00.202Z,543.0000
2023-01-19T11:51:02.545Z,546.0000
2023-01-19T11:52:04.885Z,547.0000
2023-01-19T11:53:05.105Z,545.0000
2023-01-19T11:54:07.481Z,547.0000
2023-01-19T11:55:09.867Z,547.0000
2023-01-19T11:56:12.288Z,549.0000
2023-01-19T11:57:12.467Z,548.0000
2023-01-19T11:58:14.815Z,550.0000
2023-01-19T11:59:17.192Z,551.0000
2023-01-19T12:00:19.577Z,553.0000
2023-01-19T12:01:19.926Z,551.0000
2023-01-19T12:02:22.265Z,547.0000
2023-01-19T12:03:22.445Z,548.0000
2023-01-19T12:04:24.787Z,547.0000
2023-01-19T12:05:27.122Z,548.0000
2023-01-19T12:06:29.508Z,548.0000
2023-01-19T12:07:31.821Z,550.0000
2023-01-19T12:08:32.021Z,548.0000
2023-01-19T12:09:34.391Z,548.0000
2023-01-19T12:10:36.782Z,544.0000
2023-01-19T12:11:39.214Z,545.0000
2023-01-19T12:12:43.171Z,550.0000
2023-01-19T12:13:46.025Z,549.0000